Time;durP1;ratioP1;P1;durP2;ratioP2;P2;SDS_P1;SDS_P2;PMS_P1;PMS_P2;Temp;Humidity;BMP_temperature;BMP_pressure;BME280_temperature;BME280_humidity;BME280_pressure;Samples;Min_cycle;Max_cycle;Signal;HPM_P1;HPM_P2
2022/08/21 00:00:39;;;;;;;7.63;5.60;;;17.50;99.90;;;;;;5089968;28;20199;-44
2022/08/21 00:03:08;;;;;;;6.67;5.40;;;17.50;99.90;;;;;;5090437;28;20279;-48
2022/08/21 00:05:38;;;;;;;7.53;5.50;;;17.50;99.90;;;;;;5089755;28;20583;-45
2022/08/21 00:08:04;;;;;;;8.57;5.57;;;17.40;99.90;;;;;;5088088;28;20509;-49
2022/08/21 00:10:30;;;;;;;9.57;5.53;;;17.40;99.90;;;;;;5088672;28;20495;-43
2022/08/21 00:12:56;;;;;;;6.40;4.80;;;17.40;99.90;;;;;;5089280;28;20423;-44
2022/08/21 00:15:28;;;;;;;5.97;5.37;;;17.40;99.90;;;;;;5090084;28;20785;-46
2022/08/21 00:17:55;;;;;;;6.03;4.87;;;17.30;99.90;;;;;;5089240;28;20180;-44
2022/08/21 00:20:22;;;;;;;6.97;6.27;;;17.30;99.90;;;;;;5088548;28;20552;-44
2022/08/21 00:22:48;;;;;;;7.77;5.83;;;17.30;99.90;;;;;;5090001;28;20423;-45
2022/08/21 00:25:15;;;;;;;5.83;5.33;;;17.30;99.90;;;;;;5089063;28;20472;-42
2022/08/21 00:27:44;;;;;;;5.77;5.17;;;17.30;99.90;;;;;;5088946;28;20409;-45
2022/08/21 00:30:11;;;;;;;10.00;5.40;;;17.30;99.90;;;;;;5089848;28;20415;-42
2022/08/21 00:32:39;;;;;;;12.73;6.30;;;17.30;99.90;;;;;;5089473;28;20793;-43
2022/08/21 00:35:07;;;;;;;6.27;5.27;;;17.40;99.90;;;;;;5089604;28;20505;-47
2022/08/21 00:37:33;;;;;;;7.03;5.47;;;17.30;99.90;;;;;;5088813;28;20414;-45
2022/08/21 00:39:59;;;;;;;6.87;5.60;;;17.20;99.90;;;;;;5089451;28;20517;-43
2022/08/21 00:42:25;;;;;;;8.37;6.33;;;17.20;99.90;;;;;;5089343;28;20189;-45
2022/08/21 00:44:51;;;;;;;6.10;5.50;;;17.10;99.90;;;;;;5083620;28;20387;-45
2022/08/21 00:47:18;;;;;;;7.50;6.40;;;17.10;99.90;;;;;;5080126;28;20439;-44
2022/08/21 00:49:44;;;;;;;6.77;6.07;;;17.20;99.90;;;;;;5088931;28;20176;-46
2022/08/21 00:52:17;;;;;;;8.57;6.07;;;17.10;99.90;;;;;;5088311;28;20419;-44
2022/08/21 00:54:43;;;;;;;7.10;6.33;;;17.10;99.90;;;;;;5089586;28;20583;-44
2022/08/21 00:57:20;;;;;;;8.70;6.20;;;17.00;99.90;;;;;;5088539;28;20453;-43
2022/08/21 00:59:50;;;;;;;6.10;5.60;;;17.00;99.90;;;;;;5089169;28;20438;-47
2022/08/21 01:02:18;;;;;;;8.00;6.20;;;17.00;99.90;;;;;;5088263;28;20428;-43
2022/08/21 01:04:43;;;;;;;8.30;5.60;;;17.00;99.90;;;;;;5089083;28;20452;-45
2022/08/21 01:07:10;;;;;;;8.93;6.00;;;17.00;99.90;;;;;;5088695;28;20438;-44
2022/08/21 01:09:37;;;;;;;8.90;6.50;;;17.00;99.90;;;;;;5089036;28;20188;-43
2022/08/21 01:12:03;;;;;;;7.20;6.00;;;17.00;99.90;;;;;;5089504;28;20418;-44
2022/08/21 01:14:30;;;;;;;8.23;7.00;;;17.00;99.90;;;;;;5088805;28;20471;-43
2022/08/21 01:16:57;;;;;;;6.80;6.10;;;17.00;99.90;;;;;;5087852;28;20493;-43
2022/08/21 01:19:24;;;;;;;10.87;7.33;;;17.00;99.90;;;;;;5088118;28;20927;-42
2022/08/21 01:21:50;;;;;;;6.20;5.60;;;17.00;99.90;;;;;;5088011;28;20426;-44
2022/08/21 01:24:16;;;;;;;8.60;5.90;;;17.10;99.90;;;;;;5088415;28;20399;-44
2022/08/21 01:26:43;;;;;;;7.70;5.90;;;17.10;99.90;;;;;;5088204;28;20523;-50
2022/08/21 01:29:30;;;;;;;8.63;6.53;;;17.20;99.90;;;;;;5088519;28;20427;-46
2022/08/21 01:31:56;;;;;;;6.40;5.80;;;17.10;99.90;;;;;;5081393;28;20414;-46
2022/08/21 01:34:22;;;;;;;8.73;5.80;;;17.10;99.90;;;;;;5088461;28;20425;-45
2022/08/21 01:36:48;;;;;;;11.07;6.40;;;17.10;99.90;;;;;;5088023;28;20490;-45
2022/08/21 01:39:15;;;;;;;6.90;6.10;;;17.10;99.90;;;;;;5088297;28;20938;-43
2022/08/21 01:41:41;;;;;;;9.73;6.30;;;17.10;99.90;;;;;;5088544;28;20431;-43
2022/08/21 01:44:07;;;;;;;8.20;6.27;;;17.10;99.90;;;;;;5088243;28;20429;-44
2022/08/21 01:46:33;;;;;;;10.00;6.00;;;17.00;99.90;;;;;;5088351;28;20450;-43
2022/08/21 01:48:59;;;;;;;8.60;6.90;;;16.90;99.90;;;;;;5088108;28;20940;-45
2022/08/21 01:51:25;;;;;;;7.10;6.00;;;16.80;99.90;;;;;;5088917;28;20196;-43
2022/08/21 01:53:50;;;;;;;8.83;5.83;;;16.70;99.90;;;;;;5088404;28;20189;-45
2022/08/21 01:56:17;;;;;;;11.20;6.23;;;16.60;99.90;;;;;;5087649;28;20696;-44
2022/08/21 01:58:45;;;;;;;7.83;6.50;;;16.60;99.90;;;;;;5087751;28;20188;-49
2022/08/21 02:01:11;;;;;;;7.00;6.40;;;16.50;99.90;;;;;;5088618;28;20486;-45
2022/08/21 02:03:37;;;;;;;6.60;6.00;;;16.40;99.90;;;;;;5088164;28;20872;-46
2022/08/21 02:06:04;;;;;;;8.07;6.50;;;16.40;99.90;;;;;;5088174;28;20211;-48
2022/08/21 02:08:30;;;;;;;7.17;6.47;;;16.40;99.90;;;;;;5087839;28;20775;-47
2022/08/21 02:10:56;;;;;;;7.40;6.70;;;16.30;99.90;;;;;;5087917;28;20418;-43
2022/08/21 02:13:22;;;;;;;9.50;6.03;;;16.30;99.90;;;;;;5088477;28;20599;-43
2022/08/21 02:15:48;;;;;;;7.13;6.33;;;16.30;99.90;;;;;;5090742;28;20185;-44
2022/08/21 02:18:14;;;;;;;10.00;7.23;;;16.20;99.90;;;;;;5090472;28;20188;-45
2022/08/21 02:20:43;;;;;;;10.77;7.37;;;16.20;99.90;;;;;;5090016;28;20430;-48
2022/08/21 02:23:10;;;;;;;8.50;6.47;;;16.20;99.90;;;;;;5092297;28;20203;-44
2022/08/21 02:25:36;;;;;;;7.93;6.47;;;16.20;99.90;;;;;;5091635;28;21216;-42
2022/08/21 02:28:08;;;;;;;10.30;7.60;;;16.10;99.90;;;;;;5090382;28;20410;-46
2022/08/21 02:30:38;;;;;;;9.10;6.27;;;16.10;99.90;;;;;;5092084;28;20764;-46
2022/08/21 02:33:05;;;;;;;6.27;5.67;;;16.00;99.90;;;;;;5092105;28;20417;-47
2022/08/21 02:35:31;;;;;;;8.53;6.20;;;16.00;99.90;;;;;;5092198;28;20424;-45
2022/08/21 02:38:00;;;;;;;7.00;6.30;;;16.00;99.90;;;;;;5091077;28;20442;-45
2022/08/21 02:40:30;;;;;;;7.73;6.30;;;15.90;99.90;;;;;;5091390;28;20426;-43
2022/08/21 02:42:57;;;;;;;7.60;6.90;;;15.90;99.90;;;;;;5091752;28;20704;-43
2022/08/21 02:45:23;;;;;;;10.57;6.60;;;15.90;99.90;;;;;;5092025;28;20492;-44
2022/08/21 02:47:58;;;;;;;7.23;5.97;;;16.00;99.90;;;;;;5091033;28;20425;-46
2022/08/21 02:50:27;;;;;;;10.53;6.13;;;15.90;99.90;;;;;;5091359;28;20824;-43
2022/08/21 02:52:54;;;;;;;8.50;6.40;;;15.90;99.90;;;;;;5091508;28;20415;-47
2022/08/21 02:55:21;;;;;;;8.00;6.90;;;15.90;99.90;;;;;;5090206;28;20950;-43
2022/08/21 02:57:48;;;;;;;9.50;6.60;;;15.90;99.90;;;;;;5091048;28;20449;-45
2022/08/21 03:00:14;;;;;;;7.87;7.07;;;15.80;99.90;;;;;;5091696;28;20450;-43
2022/08/21 03:02:40;;;;;;;7.93;6.80;;;15.80;99.90;;;;;;5091550;28;20854;-46
2022/08/21 03:05:09;;;;;;;6.70;6.00;;;15.80;99.90;;;;;;5090126;28;20461;-44
2022/08/21 03:07:35;;;;;;;7.27;6.57;;;15.90;99.90;;;;;;5090597;28;20418;-43
2022/08/21 03:10:01;;;;;;;7.77;7.00;;;15.80;99.90;;;;;;5091425;28;20427;-45
2022/08/21 03:12:27;;;;;;;7.00;6.40;;;15.80;99.90;;;;;;5091540;28;20422;-44
2022/08/21 03:14:53;;;;;;;7.90;7.10;;;15.80;99.90;;;;;;5091262;28;20425;-44
2022/08/21 03:17:18;;;;;;;6.93;6.20;;;15.80;99.90;;;;;;5090489;28;20188;-43
2022/08/21 03:19:44;;;;;;;7.93;6.70;;;15.80;99.90;;;;;;5089346;28;20206;-43
2022/08/21 03:22:09;;;;;;;8.13;6.30;;;15.80;99.90;;;;;;5089800;28;20228;-44
2022/08/21 03:24:35;;;;;;;7.73;6.73;;;15.80;99.90;;;;;;5091036;28;20197;-47
2022/08/21 03:27:01;;;;;;;7.03;6.33;;;15.70;99.90;;;;;;5086270;28;20671;-44
2022/08/21 03:29:26;;;;;;;7.80;6.40;;;15.60;99.90;;;;;;5090634;28;20199;-46
2022/08/21 03:31:53;;;;;;;8.53;7.77;;;15.60;99.90;;;;;;5091049;28;20184;-43
2022/08/21 03:34:21;;;;;;;8.33;7.47;;;15.60;99.90;;;;;;5090305;28;20184;-43
2022/08/21 03:36:48;;;;;;;9.30;6.33;;;15.60;99.90;;;;;;5090609;28;20762;-44
2022/08/21 03:39:15;;;;;;;7.97;7.17;;;15.60;99.90;;;;;;5090622;28;20996;-43
2022/08/21 03:41:41;;;;;;;8.13;6.93;;;15.50;99.90;;;;;;5090513;28;20725;-44
2022/08/21 03:44:07;;;;;;;10.33;7.10;;;15.50;99.90;;;;;;5090404;28;20430;-43
2022/08/21 03:46:33;;;;;;;8.97;7.07;;;15.50;99.90;;;;;;5090227;28;20845;-45
2022/08/21 03:48:58;;;;;;;8.43;7.00;;;15.40;99.90;;;;;;5089983;28;20430;-43
2022/08/21 03:51:24;;;;;;;8.50;6.93;;;15.40;99.90;;;;;;5090672;28;20279;-43
2022/08/21 03:53:50;;;;;;;9.53;6.73;;;15.40;99.90;;;;;;5090431;28;20188;-43
2022/08/21 03:56:16;;;;;;;9.73;7.30;;;15.40;99.90;;;;;;5090546;28;20219;-47
2022/08/21 03:58:42;;;;;;;7.60;7.00;;;15.40;99.90;;;;;;5090094;28;20265;-50
2022/08/21 04:01:07;;;;;;;7.93;6.87;;;15.40;99.90;;;;;;5090479;28;20476;-45
2022/08/21 04:03:36;;;;;;;12.97;7.20;;;15.50;99.90;;;;;;5088656;28;20888;-43
2022/08/21 04:06:02;;;;;;;8.97;7.47;;;15.50;99.90;;;;;;5090649;28;20358;-43
2022/08/21 04:08:28;;;;;;;7.97;7.00;;;15.50;99.90;;;;;;5089009;28;20429;-45
2022/08/21 04:10:56;;;;;;;10.80;6.90;;;15.40;99.90;;;;;;5090419;28;20913;-46
2022/08/21 04:13:22;;;;;;;11.93;8.10;;;15.50;99.90;;;;;;5090349;28;20199;-43
2022/08/21 04:15:48;;;;;;;8.33;7.60;;;15.50;99.90;;;;;;5090360;28;20521;-46
2022/08/21 04:18:14;;;;;;;8.47;6.93;;;15.50;99.90;;;;;;5089083;28;20487;-44
2022/08/21 04:20:42;;;;;;;8.30;7.60;;;15.50;99.90;;;;;;5088390;28;20180;-43
2022/08/21 04:23:07;;;;;;;7.13;6.07;;;15.40;99.90;;;;;;5090297;28;20272;-48
2022/08/21 04:25:33;;;;;;;8.80;7.07;;;15.40;99.90;;;;;;5089962;28;20532;-46
2022/08/21 04:27:59;;;;;;;8.80;7.90;;;15.40;99.90;;;;;;5088523;28;20678;-43
2022/08/21 04:30:25;;;;;;;8.13;6.03;;;15.40;99.90;;;;;;5089385;28;20185;-45
2022/08/21 04:32:51;;;;;;;9.30;6.80;;;15.50;99.90;;;;;;5090013;28;20193;-47
2022/08/21 04:35:19;;;;;;;8.70;7.50;;;15.50;99.90;;;;;;5089638;28;20418;-45
2022/08/21 04:37:45;;;;;;;10.50;7.37;;;15.40;99.90;;;;;;5088353;28;20777;-44
2022/08/21 04:40:13;;;;;;;7.57;6.87;;;15.40;99.90;;;;;;5088204;28;20444;-48
2022/08/21 04:42:54;;;;;;;6.87;6.20;;;15.30;99.90;;;;;;5089741;28;20427;-43
2022/08/21 04:45:28;;;;;;;6.47;5.97;;;15.30;99.90;;;;;;5089023;28;20822;-44
2022/08/21 04:47:57;;;;;;;7.87;7.10;;;15.20;99.90;;;;;;5088880;28;20658;-44
2022/08/21 04:50:27;;;;;;;7.37;6.67;;;15.20;99.90;;;;;;5088987;28;20425;-44
2022/08/21 04:52:54;;;;;;;8.10;7.30;;;15.20;99.90;;;;;;5088931;28;20502;-46
2022/08/21 04:55:20;;;;;;;8.77;7.23;;;15.20;99.90;;;;;;5087884;28;20799;-45
2022/08/21 04:57:46;;;;;;;8.50;7.70;;;15.30;99.90;;;;;;5088406;28;20422;-44
2022/08/21 05:00:13;;;;;;;8.90;7.80;;;15.30;99.90;;;;;;5089128;28;20426;-43
2022/08/21 05:02:41;;;;;;;7.93;6.80;;;15.40;99.90;;;;;;5089455;28;20492;-43
2022/08/21 05:05:07;;;;;;;7.70;6.67;;;15.40;99.90;;;;;;5088871;28;20489;-46
2022/08/21 05:07:34;;;;;;;9.47;7.17;;;15.40;99.90;;;;;;5088368;28;20414;-43
2022/08/21 05:10:00;;;;;;;8.83;7.73;;;15.50;99.90;;;;;;5088941;28;20450;-46
2022/08/21 05:12:26;;;;;;;10.13;6.90;;;15.50;99.90;;;;;;5088584;28;20856;-43
2022/08/21 05:14:52;;;;;;;8.27;6.40;;;15.60;99.90;;;;;;5089062;28;20514;-44
2022/08/21 05:17:17;;;;;;;8.53;7.43;;;15.70;99.90;;;;;;5088110;28;20513;-44
2022/08/21 05:19:43;;;;;;;8.30;7.20;;;15.70;99.90;;;;;;5087352;28;20188;-43
2022/08/21 05:22:09;;;;;;;6.77;6.10;;;15.80;99.90;;;;;;5087506;28;20200;-44
2022/08/21 05:24:35;;;;;;;9.63;7.53;;;15.90;99.90;;;;;;5087980;28;20177;-47
2022/08/21 05:27:01;;;;;;;7.90;7.10;;;15.90;99.90;;;;;;5087666;28;20204;-44
2022/08/21 05:29:27;;;;;;;8.87;6.70;;;16.10;99.90;;;;;;5088711;28;20461;-46
2022/08/21 05:31:52;;;;;;;7.77;7.07;;;16.20;99.90;;;;;;5088854;28;20450;-46
2022/08/21 05:34:21;;;;;;;8.30;6.43;;;16.30;99.90;;;;;;5088685;28;20192;-51
2022/08/21 05:36:47;;;;;;;8.00;7.20;;;16.40;99.90;;;;;;5087992;28;20223;-46
2022/08/21 05:39:13;;;;;;;8.27;6.60;;;16.40;99.90;;;;;;5088749;28;20921;-49
2022/08/21 05:41:39;;;;;;;7.80;6.70;;;16.50;99.90;;;;;;5088528;28;20484;-44
2022/08/21 05:44:04;;;;;;;10.80;6.17;;;16.50;99.90;;;;;;5088530;28;20414;-43
2022/08/21 05:46:30;;;;;;;7.53;6.70;;;16.60;99.90;;;;;;5088647;28;20218;-44
2022/08/21 05:48:56;;;;;;;8.27;7.37;;;16.60;99.90;;;;;;5087880;28;20633;-46
2022/08/21 05:51:21;;;;;;;7.63;6.90;;;16.70;99.90;;;;;;5088598;28;20188;-43
2022/08/21 05:53:47;;;;;;;8.87;7.93;;;16.90;99.90;;;;;;5088244;28;20659;-44
2022/08/21 05:56:14;;;;;;;9.73;7.50;;;17.10;99.90;;;;;;5084603;28;20547;-44
2022/08/21 05:58:39;;;;;;;9.53;7.80;;;17.30;99.90;;;;;;5087514;28;20203;-47
2022/08/21 06:01:06;;;;;;;7.63;6.93;;;17.50;99.90;;;;;;5084946;28;20415;-45
2022/08/21 06:03:34;;;;;;;11.50;10.27;;;17.80;99.90;;;;;;5085659;28;20233;-43
2022/08/21 06:06:00;;;;;;;32.57;9.33;;;18.10;99.90;;;;;;5087313;28;20466;-44
2022/08/21 06:08:26;;;;;;;8.27;7.23;;;18.30;99.90;;;;;;5086260;28;20422;-47
2022/08/21 06:10:53;;;;;;;12.40;7.90;;;18.60;99.90;;;;;;5088741;28;20510;-45
2022/08/21 06:13:21;;;;;;;12.40;8.20;;;18.70;99.90;;;;;;5088093;28;20560;-44
2022/08/21 06:15:47;;;;;;;12.07;8.60;;;18.90;99.90;;;;;;5088134;28;20418;-46
2022/08/21 06:18:13;;;;;;;11.70;9.60;;;19.10;99.90;;;;;;5087247;28;20766;-48
2022/08/21 06:20:40;;;;;;;10.60;9.53;;;19.20;99.90;;;;;;5086599;28;20438;-43
2022/08/21 06:23:06;;;;;;;10.90;9.60;;;19.40;99.90;;;;;;5088100;28;20766;-44
2022/08/21 06:25:32;;;;;;;10.10;9.10;;;19.50;99.90;;;;;;5087762;28;20466;-43
2022/08/21 06:28:07;;;;;;;11.00;9.30;;;19.60;99.90;;;;;;5080222;28;20426;-47
2022/08/21 06:30:34;;;;;;;9.90;8.90;;;19.70;99.90;;;;;;5085818;28;20916;-43
2022/08/21 06:32:59;;;;;;;10.03;9.13;;;19.80;99.90;;;;;;5087999;28;20410;-45
2022/08/21 06:35:25;;;;;;;12.00;9.40;;;20.00;99.90;;;;;;5088047;28;20406;-44
2022/08/21 06:37:51;;;;;;;15.10;10.23;;;20.10;99.90;;;;;;5087009;28;20184;-48
2022/08/21 06:40:17;;;;;;;11.60;10.40;;;20.10;99.90;;;;;;5088079;28;20538;-43
2022/08/21 06:42:43;;;;;;;10.73;9.63;;;20.20;99.90;;;;;;5088017;28;20421;-47
2022/08/21 06:45:10;;;;;;;15.00;11.00;;;20.40;99.90;;;;;;5087882;28;20306;-43
2022/08/21 06:47:35;;;;;;;12.37;10.30;;;20.40;99.90;;;;;;5087283;28;20233;-44
2022/08/21 06:50:02;;;;;;;11.20;9.97;;;20.60;99.90;;;;;;5085911;28;20426;-44
2022/08/21 06:52:28;;;;;;;11.63;8.90;;;20.60;99.90;;;;;;5084812;28;20691;-47
2022/08/21 06:54:53;;;;;;;17.57;10.90;;;20.70;99.90;;;;;;5082846;28;20464;-44
2022/08/21 06:57:19;;;;;;;15.50;10.87;;;20.80;99.90;;;;;;5087150;28;20191;-43
2022/08/21 06:59:44;;;;;;;12.20;10.03;;;20.90;99.90;;;;;;5087680;28;20210;-43
2022/08/21 07:02:10;;;;;;;13.70;10.47;;;21.00;99.90;;;;;;5088426;28;20200;-43
2022/08/21 07:04:36;;;;;;;12.73;10.57;;;21.10;99.90;;;;;;5090903;28;20204;-44
2022/08/21 07:07:01;;;;;;;10.67;9.53;;;21.10;99.90;;;;;;5089540;28;20215;-44
2022/08/21 07:09:27;;;;;;;14.60;10.53;;;21.20;99.90;;;;;;5088062;28;20897;-47
2022/08/21 07:11:55;;;;;;;16.60;10.20;;;21.20;99.90;;;;;;5088337;28;20272;-49
2022/08/21 07:14:21;;;;;;;10.93;9.83;;;21.20;99.90;;;;;;5085916;28;20185;-44
2022/08/21 07:16:47;;;;;;;15.20;11.00;;;21.30;99.90;;;;;;5089539;28;20761;-46
2022/08/21 07:19:13;;;;;;;11.17;9.97;;;21.40;99.90;;;;;;5090079;28;20505;-47
2022/08/21 07:21:39;;;;;;;12.87;9.70;;;21.50;99.90;;;;;;5089232;28;20509;-44
2022/08/21 07:24:04;;;;;;;12.90;10.07;;;21.50;99.90;;;;;;5091099;28;20636;-44
2022/08/21 07:26:30;;;;;;;13.17;9.70;;;21.60;99.90;;;;;;5090410;28;20227;-43
2022/08/21 07:28:56;;;;;;;9.17;8.43;;;21.50;99.90;;;;;;5089604;28;20655;-47
2022/08/21 07:31:24;;;;;;;12.63;8.70;;;21.50;99.90;;;;;;5085553;28;20275;-45
2022/08/21 07:33:50;;;;;;;11.67;10.03;;;21.50;99.90;;;;;;5083438;28;20633;-49
2022/08/21 07:36:15;;;;;;;14.63;9.70;;;21.60;99.90;;;;;;5089477;27;20442;-45
2022/08/21 07:38:41;;;;;;;12.70;9.37;;;21.50;99.90;;;;;;5087350;28;20200;-45
2022/08/21 07:41:18;;;;;;;11.97;10.03;;;21.50;99.90;;;;;;5086927;28;20216;-45
2022/08/21 07:43:44;;;;;;;9.50;8.63;;;21.50;99.90;;;;;;5089464;28;20287;-48
2022/08/21 07:46:10;;;;;;;13.50;7.97;;;21.40;99.90;;;;;;5089158;28;20474;-48
2022/08/21 07:48:36;;;;;;;8.60;7.80;;;21.40;99.90;;;;;;5088786;28;20453;-46
2022/08/21 07:51:10;;;;;;;8.47;7.57;;;21.40;99.90;;;;;;5089842;28;20952;-49
2022/08/21 07:53:37;;;;;;;10.57;7.93;;;21.40;99.90;;;;;;5090298;28;20571;-44
2022/08/21 07:56:04;;;;;;;9.63;6.90;;;21.50;99.90;;;;;;5103234;28;20497;-46
2022/08/21 07:58:30;;;;;;;8.73;7.27;;;21.40;99.90;;;;;;5089602;28;20457;-44
2022/08/21 08:00:56;;;;;;;8.03;6.60;;;21.40;99.90;;;;;;5101920;28;20477;-46
2022/08/21 08:03:22;;;;;;;9.67;6.17;;;21.40;99.90;;;;;;5090091;28;20470;-46
2022/08/21 08:05:48;;;;;;;7.97;6.40;;;21.40;99.90;;;;;;5089396;28;20661;-47
2022/08/21 08:08:14;;;;;;;7.17;5.27;;;21.40;99.90;;;;;;5089131;28;20291;-44
2022/08/21 08:10:40;;;;;;;6.90;4.67;;;21.40;99.90;;;;;;5088830;28;20200;-44
2022/08/21 08:13:06;;;;;;;6.83;4.60;;;21.30;99.90;;;;;;5088354;28;20523;-45
2022/08/21 08:15:31;;;;;;;5.80;4.13;;;21.20;99.90;;;;;;5088586;28;20450;-43
2022/08/21 08:17:57;;;;;;;6.10;4.60;;;21.20;99.90;;;;;;5088850;28;20225;-44
2022/08/21 08:20:27;;;;;;;4.83;3.80;;;21.20;99.90;;;;;;5089786;28;20640;-50
2022/08/21 08:22:54;;;;;;;6.20;3.23;;;21.20;99.90;;;;;;5095394;27;20204;-45
2022/08/21 08:25:22;;;;;;;6.57;3.33;;;21.20;99.90;;;;;;5088695;28;20454;-48
2022/08/21 08:27:48;;;;;;;4.83;3.57;;;21.30;99.90;;;;;;5087113;28;20981;-45
2022/08/21 08:30:16;;;;;;;7.37;3.20;;;21.30;99.90;;;;;;5086783;28;20999;-45
2022/08/21 08:32:42;;;;;;;7.73;3.30;;;21.30;99.90;;;;;;5089202;28;20457;-43
2022/08/21 08:35:11;;;;;;;7.07;3.20;;;21.30;99.90;;;;;;5088959;28;20434;-46
2022/08/21 08:37:37;;;;;;;7.90;2.80;;;21.30;99.90;;;;;;5087866;28;20460;-49
2022/08/21 08:40:05;;;;;;;7.70;3.13;;;21.30;99.90;;;;;;5096636;28;20492;-45
2022/08/21 08:42:35;;;;;;;4.50;2.50;;;21.30;99.90;;;;;;5088758;28;20534;-45
2022/08/21 08:45:17;;;;;;;6.40;3.13;;;21.40;99.90;;;;;;5088691;28;20485;-44
2022/08/21 08:47:51;;;;;;;7.83;3.30;;;21.50;99.90;;;;;;5085893;28;20476;-44
2022/08/21 08:50:25;;;;;;;7.20;2.57;;;21.50;99.90;;;;;;5087007;28;20557;-46
2022/08/21 08:53:00;;;;;;;9.07;3.50;;;21.50;99.90;;;;;;5089916;28;20457;-47
2022/08/21 08:55:45;;;;;;;7.73;3.23;;;21.60;99.90;;;;;;5087856;28;20449;-48
2022/08/21 08:58:24;;;;;;;5.53;3.03;;;21.60;99.90;;;;;;5088521;28;20894;-47
2022/08/21 09:00:52;;;;;;;5.33;2.87;;;21.60;99.90;;;;;;5088250;27;20430;-46
2022/08/21 09:03:18;;;;;;;5.13;3.00;;;21.60;99.90;;;;;;5089434;28;20500;-48
2022/08/21 09:06:08;;;;;;;8.23;3.80;;;21.70;99.90;;;;;;5089297;28;20563;-48
2022/08/21 09:08:54;;;;;;;4.80;3.20;;;21.60;99.90;;;;;;5086060;28;20436;-45
2022/08/21 09:11:34;;;;;;;4.50;3.40;;;21.70;99.90;;;;;;5084492;28;20470;-48
2022/08/21 09:14:26;;;;;;;3.80;3.40;;;21.80;99.90;;;;;;5084785;28;20444;-43
2022/08/21 09:16:54;;;;;;;11.33;4.33;;;21.80;99.90;;;;;;5085470;28;21031;-46
2022/08/21 09:19:37;;;;;;;7.33;3.13;;;21.90;99.90;;;;;;5082781;28;20681;-45
2022/08/21 09:22:13;;;;;;;5.83;3.17;;;22.00;99.90;;;;;;5085091;28;20442;-45
2022/08/21 09:25:07;;;;;;;7.20;3.53;;;22.10;99.90;;;;;;5084745;28;21011;-47
2022/08/21 09:27:34;;;;;;;4.27;2.90;;;22.20;99.90;;;;;;5080689;28;20490;-46
2022/08/21 09:30:00;;;;;;;6.13;3.20;;;22.30;99.90;;;;;;5086230;28;20446;-45
2022/08/21 09:32:31;;;;;;;9.13;3.60;;;22.40;99.90;;;;;;5085633;28;20987;-45
2022/08/21 09:35:00;;;;;;;6.40;2.73;;;22.40;99.90;;;;;;5084089;28;20613;-46
2022/08/21 09:37:31;;;;;;;7.13;2.90;;;22.50;99.90;;;;;;5087227;28;20438;-44
2022/08/21 09:39:58;;;;;;;6.10;2.60;;;22.60;99.90;;;;;;5086153;28;20813;-44
2022/08/21 09:42:33;;;;;;;5.70;2.80;;;22.70;99.90;;;;;;5087563;28;20727;-47
2022/08/21 09:45:09;;;;;;;5.80;3.20;;;22.80;99.90;;;;;;5087020;28;20431;-45
2022/08/21 09:47:35;;;;;;;6.37;3.10;;;22.80;99.90;;;;;;5086949;28;20522;-48
2022/08/21 09:50:19;;;;;;;9.73;3.30;;;22.70;99.90;;;;;;5089969;28;20524;-45
2022/08/21 09:52:53;;;;;;;3.73;2.77;;;22.70;99.90;;;;;;5084460;28;20499;-44
2022/08/21 09:58:50;;;;;;;3.90;2.27;;;22.80;99.90;;;;;;5038325;28;20520;-45
2022/08/21 10:01:24;;;;;;;5.93;2.80;;;22.90;99.90;;;;;;5074645;28;20511;-46
2022/08/21 10:04:05;;;;;;;4.93;2.50;;;23.10;99.90;;;;;;5085449;28;21047;-43
2022/08/21 10:06:31;;;;;;;4.67;2.70;;;23.20;99.90;;;;;;5082929;28;20477;-48
2022/08/21 10:09:10;;;;;;;4.17;2.43;;;23.30;99.80;;;;;;5085785;28;20446;-48
2022/08/21 10:11:35;;;;;;;5.93;3.47;;;23.50;99.90;;;;;;5086207;28;20699;-49
2022/08/21 10:14:31;;;;;;;8.40;2.60;;;23.60;99.90;;;;;;5086284;28;20450;-45
2022/08/21 10:17:29;;;;;;;2.80;2.50;;;23.70;99.90;;;;;;5086256;28;20470;-45
2022/08/21 10:20:05;;;;;;;4.47;2.23;;;23.80;98.90;;;;;;5082360;28;20533;-48
2022/08/21 10:23:06;;;;;;;4.53;2.60;;;23.80;98.90;;;;;;5087520;28;20458;-44
2022/08/21 10:25:37;;;;;;;3.23;2.00;;;23.90;98.40;;;;;;5091905;28;20498;-43
2022/08/21 10:28:21;;;;;;;2.90;2.07;;;23.90;98.40;;;;;;5086763;28;20453;-48
2022/08/21 10:30:59;;;;;;;6.30;2.40;;;24.00;98.60;;;;;;5087178;28;20747;-43
2022/08/21 10:34:05;;;;;;;6.10;1.87;;;24.00;97.90;;;;;;5087773;28;20796;-44
2022/08/21 10:36:43;;;;;;;2.83;2.20;;;24.10;97.70;;;;;;5096372;28;20438;-44
2022/08/21 10:39:23;;;;;;;4.00;2.20;;;24.10;97.10;;;;;;5089428;28;20444;-47
2022/08/21 10:42:00;;;;;;;3.97;1.70;;;24.20;97.50;;;;;;5089148;28;20453;-43
2022/08/21 10:44:38;;;;;;;4.97;1.70;;;24.30;97.60;;;;;;5085491;28;20437;-46
2022/08/21 10:47:08;;;;;;;7.83;2.40;;;24.40;97.20;;;;;;5088340;28;20498;-47
2022/08/21 10:49:49;;;;;;;5.90;2.00;;;24.50;97.40;;;;;;5091264;28;20478;-46
2022/08/21 10:52:33;;;;;;;4.20;2.10;;;24.60;97.80;;;;;;5090052;28;20847;-45
2022/08/21 10:55:27;;;;;;;4.30;2.00;;;24.70;97.70;;;;;;5090025;28;20968;-48
2022/08/21 10:58:39;;;;;;;4.33;1.60;;;24.80;97.00;;;;;;5089031;28;20537;-48
2022/08/21 11:01:15;;;;;;;5.27;2.10;;;24.80;95.80;;;;;;5089980;28;20456;-46
2022/08/21 11:03:43;;;;;;;2.20;1.70;;;24.80;96.40;;;;;;5090735;28;21000;-47
2022/08/21 11:06:15;;;;;;;1.93;1.50;;;24.90;96.40;;;;;;5089232;28;20899;-46
2022/08/21 11:08:45;;;;;;;3.40;1.70;;;25.00;96.80;;;;;;5091856;28;20903;-46
2022/08/21 11:11:29;;;;;;;4.10;1.97;;;25.10;95.70;;;;;;5091010;28;20428;-44
2022/08/21 11:14:00;;;;;;;3.53;1.50;;;25.20;96.50;;;;;;5090204;28;20453;-45
2022/08/21 11:16:28;;;;;;;5.00;1.73;;;25.20;95.40;;;;;;5090887;28;20414;-50
2022/08/21 11:19:02;;;;;;;3.40;1.83;;;25.30;96.30;;;;;;5090164;28;20494;-43
2022/08/21 11:21:32;;;;;;;4.10;2.03;;;25.30;94.90;;;;;;5090053;28;20431;-47
2022/08/21 11:24:23;;;;;;;2.27;1.43;;;25.30;94.70;;;;;;5090735;28;20858;-44
2022/08/21 11:27:14;;;;;;;1.73;1.60;;;25.30;94.50;;;;;;5088240;28;20455;-45
2022/08/21 11:29:43;;;;;;;2.23;1.30;;;25.30;95.60;;;;;;5091216;28;20778;-49
2022/08/21 11:32:41;;;;;;;4.70;1.50;;;25.30;95.00;;;;;;5089463;28;20925;-46
2022/08/21 11:35:43;;;;;;;2.83;1.90;;;25.20;93.90;;;;;;5090913;28;20418;-47
2022/08/21 11:38:43;;;;;;;2.13;1.77;;;25.20;94.70;;;;;;5090396;28;20433;-44
2022/08/21 11:41:37;;;;;;;4.50;1.50;;;25.20;94.60;;;;;;5087405;28;20484;-44
2022/08/21 11:44:34;;;;;;;2.30;1.80;;;25.20;94.50;;;;;;5091081;28;20446;-43
2022/08/21 11:47:15;;;;;;;1.90;1.70;;;25.20;95.30;;;;;;5089548;28;20823;-45
2022/08/21 11:50:20;;;;;;;2.50;1.63;;;25.30;94.90;;;;;;5088269;28;20463;-44
2022/08/21 11:52:55;;;;;;;2.20;1.43;;;25.40;94.40;;;;;;5089231;28;20793;-43
2022/08/21 11:55:57;;;;;;;4.70;1.63;;;25.30;93.30;;;;;;5090374;28;20452;-43
2022/08/21 11:58:30;;;;;;;5.13;1.83;;;25.20;92.20;;;;;;5083603;28;20442;-44
2022/08/21 12:01:05;;;;;;;2.50;2.00;;;24.90;93.40;;;;;;5089570;28;20821;-44
2022/08/21 12:03:42;;;;;;;2.50;1.73;;;24.90;94.10;;;;;;5088505;28;20450;-46
2022/08/21 12:06:09;;;;;;;3.10;1.63;;;24.90;94.20;;;;;;5091374;28;20441;-45
2022/08/21 12:08:42;;;;;;;3.53;1.60;;;24.90;93.70;;;;;;5090497;28;20430;-44
2022/08/21 12:11:16;;;;;;;2.33;1.40;;;24.90;95.10;;;;;;5090931;28;20399;-44
2022/08/21 12:13:54;;;;;;;2.23;1.70;;;25.00;95.10;;;;;;5091014;28;20496;-44
2022/08/21 12:16:44;;;;;;;3.10;1.70;;;25.10;96.30;;;;;;5088892;28;20826;-43
2022/08/21 12:19:25;;;;;;;3.93;1.53;;;25.10;93.60;;;;;;5090697;28;20415;-41
2022/08/21 12:21:56;;;;;;;2.73;1.47;;;25.10;94.80;;;;;;5089471;28;20943;-43
2022/08/21 12:24:28;;;;;;;5.57;1.83;;;25.20;95.10;;;;;;5090951;28;20444;-42
2022/08/21 12:27:14;;;;;;;5.63;1.73;;;25.30;94.90;;;;;;5087927;28;20442;-43
2022/08/21 12:29:49;;;;;;;4.93;2.10;;;25.30;94.60;;;;;;5089070;28;20493;-42
2022/08/21 12:32:15;;;;;;;4.20;1.43;;;25.40;94.40;;;;;;5088706;28;20418;-46
2022/08/21 12:34:48;;;;;;;2.37;1.50;;;25.50;94.90;;;;;;5090501;28;20418;-42
2022/08/21 12:37:16;;;;;;;3.33;1.30;;;25.70;92.40;;;;;;5087435;28;20292;-42
2022/08/21 12:39:46;;;;;;;2.80;1.30;;;25.70;93.80;;;;;;5090428;28;20987;-44
2022/08/21 12:42:30;;;;;;;5.50;1.67;;;25.70;94.10;;;;;;5090105;28;20414;-40
2022/08/21 12:45:02;;;;;;;4.90;1.20;;;25.80;94.40;;;;;;5087584;28;20407;-46
2022/08/21 12:47:33;;;;;;;2.37;1.27;;;25.90;93.60;;;;;;5089934;28;21163;-43
2022/08/21 12:50:12;;;;;;;2.63;1.20;;;26.00;91.90;;;;;;5087840;28;20819;-41
2022/08/21 12:53:00;;;;;;;2.80;1.40;;;26.00;91.20;;;;;;5089006;28;20433;-41
2022/08/21 12:55:32;;;;;;;2.03;1.00;;;26.00;92.60;;;;;;5089780;28;20429;-43
2022/08/21 12:57:58;;;;;;;1.77;1.30;;;26.00;91.70;;;;;;5089055;28;20423;-41
2022/08/21 13:00:28;;;;;;;2.10;1.13;;;26.00;90.50;;;;;;5087655;28;20542;-40
2022/08/21 13:02:56;;;;;;;2.37;1.27;;;25.90;92.10;;;;;;5088995;28;20407;-41
2022/08/21 13:05:24;;;;;;;1.97;1.53;;;25.90;91.80;;;;;;5088606;28;20611;-44